Time;durP1;ratioP1;P1;durP2;ratioP2;P2;SDS_P1;SDS_P2;PMS_P1;PMS_P2;Temp;Humidity;BMP_temperature;BMP_pressure;BME280_temperature;BME280_humidity;BME280_pressure;Samples;Min_cycle;Max_cycle;Signal;HPM_P1;HPM_P2
2022/09/11 00:01:08;;;;;;;1.10;1.00;;;;;;;18.07;54.11;99574.19;7580589;33;40424;-79
2022/09/11 00:05:24;;;;;;;4.22;1.08;;;;;;;18.18;53.60;99569.97;7580393;33;40014;-80
2022/09/11 00:09:40;;;;;;;2.47;1.10;;;;;;;18.12;54.06;99571.25;7580095;33;37965;-77
2022/09/11 00:13:57;;;;;;;3.25;1.17;;;;;;;17.80;55.07;99573.38;7585018;32;37110;-79
2022/09/11 00:18:16;;;;;;;4.68;1.40;;;;;;;17.97;54.30;99556.03;7593825;32;39333;-77
2022/09/11 00:22:32;;;;;;;0.95;0.95;;;;;;;17.93;54.31;99555.06;7580676;33;39880;-76
2022/09/11 00:26:48;;;;;;;2.20;1.10;;;;;;;17.70;55.09;99568.19;7579892;33;37998;-77
2022/09/11 00:31:07;;;;;;;1.42;1.08;;;;;;;17.13;56.90;99552.59;7579806;33;37776;-76
2022/09/11 00:35:23;;;;;;;0.80;0.80;;;;;;;17.27;56.78;99551.31;7580187;33;40178;-76
2022/09/11 00:39:41;;;;;;;1.60;1.10;;;;;;;17.62;55.36;99550.50;7579870;33;39950;-76
2022/09/11 00:44:02;;;;;;;2.80;1.05;;;;;;;17.58;55.16;99547.59;7579716;33;38801;-77
2022/09/11 00:48:21;;;;;;;1.55;1.10;;;;;;;17.44;55.85;99556.03;7566079;33;37214;-76
2022/09/11 00:52:45;;;;;;;2.58;1.02;;;;;;;17.54;55.44;99554.06;7545959;33;40492;-77
2022/09/11 00:57:07;;;;;;;1.30;1.10;;;;;;;17.34;55.98;99552.78;7567741;33;39752;-76
2022/09/11 01:01:23;;;;;;;1.30;1.20;;;;;;;17.20;56.35;99548.22;7566436;33;38057;-76
2022/09/11 01:05:42;;;;;;;1.40;1.27;;;;;;;17.18;56.35;99542.22;7579570;33;37715;-76
2022/09/11 01:09:58;;;;;;;1.10;1.00;;;;;;;17.24;56.32;99540.12;7579764;33;39229;-76
2022/09/11 01:14:44;;;;;;;1.33;1.02;;;;;;;17.09;56.44;99546.91;7566563;33;39937;-76
2022/09/11 01:19:18;;;;;;;2.37;1.17;;;;;;;16.87;57.26;99540.38;7579596;33;38489;-76
2022/09/11 01:23:53;;;;;;;1.05;1.00;;;;;;;16.86;57.22;99532.44;7589935;32;37054;-76
2022/09/11 01:28:29;;;;;;;2.87;1.20;;;;;;;16.93;56.83;99534.72;7579233;33;40034;-76
2022/09/11 01:33:00;;;;;;;1.10;1.00;;;;;;;16.86;57.27;99532.44;7567377;33;39939;-76
2022/09/11 01:37:35;;;;;;;1.80;1.25;;;;;;;16.81;57.35;99544.37;7578480;33;38693;-76
2022/09/11 01:41:59;;;;;;;1.42;1.10;;;;;;;16.89;56.91;99543.63;7567770;33;37030;-76
2022/09/11 01:46:21;;;;;;;;;;;;;;;16.72;57.73;99540.78;7567079;33;41954;-76
2022/09/11 01:50:42;;;;;;;1.87;1.27;;;;;;;16.95;56.99;99532.47;7579199;33;40979;-76
2022/09/11 01:55:04;;;;;;;1.05;0.90;;;;;;;16.82;57.08;99529.50;7566262;33;37675;-77
2022/09/11 01:59:26;;;;;;;1.00;1.00;;;;;;;16.53;57.96;99528.09;7566296;33;36833;-77
2022/09/11 02:03:55;;;;;;;1.20;1.10;;;;;;;16.51;57.96;99524.84;7566454;33;39384;-76
2022/09/11 02:08:24;;;;;;;0.77;0.77;;;;;;;16.52;57.82;99522.91;7566704;33;39853;-77
2022/09/11 02:12:45;;;;;;;1.60;0.98;;;;;;;16.58;57.56;99518.91;7565836;33;37815;-76
2022/09/11 02:17:07;;;;;;;3.78;1.15;;;;;;;16.46;57.99;99516.75;7578493;33;37980;-77
2022/09/11 02:21:24;;;;;;;1.52;1.05;;;;;;;16.43;58.02;99517.38;7565988;33;40479;-77
2022/09/11 02:25:40;;;;;;;1.00;1.00;;;;;;;16.36;58.30;99514.28;7569333;32;40012;-76
2022/09/11 02:29:57;;;;;;;1.15;1.05;;;;;;;16.29;58.70;99511.97;7579425;32;38725;-76
2022/09/11 02:34:14;;;;;;;4.78;1.40;;;;;;;16.28;58.54;99523.28;7578420;33;37030;-76
2022/09/11 02:38:51;;;;;;;2.65;1.20;;;;;;;16.33;58.52;99512.97;7565066;33;39222;-75
2022/09/11 02:43:29;;;;;;;2.67;1.00;;;;;;;16.22;58.93;99522.63;7565920;33;40784;-76
2022/09/11 02:48:15;;;;;;;1.92;0.98;;;;;;;16.26;58.72;99523.59;7577636;33;38514;-76
2022/09/11 02:52:43;;;;;;;1.67;1.05;;;;;;;16.19;59.03;99516.94;7560702;33;37664;-77
2022/09/11 02:57:13;;;;;;;1.95;1.25;;;;;;;16.26;59.07;99514.53;7581449;33;40154;-75
2022/09/11 03:01:30;;;;;;;1.30;1.15;;;;;;;16.07;59.58;99518.31;7580958;33;40003;-75
2022/09/11 03:05:46;;;;;;;1.30;1.20;;;;;;;16.36;58.87;99514.28;7567914;33;37863;-75
2022/09/11 03:10:03;;;;;;;2.58;1.10;;;;;;;16.40;58.77;99514.44;7580728;33;37046;-75
2022/09/11 03:14:19;;;;;;;1.60;0.90;;;;;;;16.12;60.02;99523.69;7581054;33;40022;-76
2022/09/11 03:18:35;;;;;;;1.75;1.10;;;;;;;16.27;59.48;99524.44;7580792;33;41209;-76
2022/09/11 03:22:51;;;;;;;1.10;1.00;;;;;;;16.41;58.64;99514.13;7581113;33;38749;-76
2022/09/11 03:27:07;;;;;;;0.85;0.85;;;;;;;16.37;58.71;99513.16;7581223;33;37145;-76
2022/09/11 03:31:23;;;;;;;4.53;1.20;;;;;;;16.19;58.86;99515.00;7591031;32;39161;-75
2022/09/11 03:35:41;;;;;;;1.87;1.10;;;;;;;16.28;58.62;99526.88;7582838;32;40627;-75
2022/09/11 03:39:58;;;;;;;5.25;1.10;;;;;;;16.12;59.40;99520.16;7580687;33;37869;-76
2022/09/11 03:44:14;;;;;;;1.52;1.15;;;;;;;16.07;59.62;99526.56;7581026;33;38866;-77
2022/09/11 03:48:32;;;;;;;1.00;1.00;;;;;;;16.12;59.42;99526.44;7581045;33;40120;-76
2022/09/11 03:52:48;;;;;;;1.00;1.00;;;;;;;15.88;60.37;99523.22;7580945;32;39717;-76
2022/09/11 03:57:05;;;;;;;3.30;0.95;;;;;;;16.12;59.25;99526.44;7567893;33;38792;-74
2022/09/11 04:01:22;;;;;;;2.67;0.88;;;;;;;15.94;59.93;99522.00;7580484;33;37010;-75
2022/09/11 04:05:38;;;;;;;2.25;1.05;;;;;;;15.84;60.45;99519.50;7581045;33;40124;-75
2022/09/11 04:09:54;;;;;;;1.58;1.00;;;;;;;15.75;60.70;99514.75;7580654;33;40212;-76
2022/09/11 04:14:11;;;;;;;1.37;1.10;;;;;;;15.60;61.16;99523.34;7580795;33;37957;-76
2022/09/11 04:18:28;;;;;;;2.15;1.10;;;;;;;15.60;61.73;99534.31;7581027;33;37311;-75
2022/09/11 04:22:44;;;;;;;4.40;1.42;;;;;;;15.67;61.50;99531.16;7567349;33;40083;-75
2022/09/11 04:27:00;;;;;;;2.05;1.42;;;;;;;15.48;62.37;99520.34;7580667;33;39900;-75
2022/09/11 04:31:17;;;;;;;5.60;2.87;;;;;;;15.61;61.86;99519.47;7580592;33;38013;-75
2022/09/11 04:35:38;;;;;;;8.30;3.87;;;;;;;15.46;62.40;99517.91;7580492;33;37124;-76
2022/09/11 04:39:54;;;;;;;8.15;3.25;;;;;;;15.39;62.88;99512.03;7580752;33;40011;-75
2022/09/11 04:44:10;;;;;;;3.37;1.37;;;;;;;15.58;62.14;99509.91;7580251;33;39727;-76
2022/09/11 04:48:27;;;;;;;2.08;1.40;;;;;;;15.63;61.98;99516.41;7580317;33;37951;-75
2022/09/11 04:52:44;;;;;;;1.90;1.10;;;;;;;15.66;62.03;99502.03;7580537;33;37080;-75
2022/09/11 04:57:00;;;;;;;3.55;1.20;;;;;;;15.96;61.11;99506.78;7580483;33;39275;-76
2022/09/11 05:01:16;;;;;;;1.35;1.15;;;;;;;16.10;61.02;99508.66;7580359;33;40777;-75
2022/09/11 05:05:33;;;;;;;3.30;1.10;;;;;;;16.03;61.37;99509.09;7580329;33;38256;-76
2022/09/11 05:09:49;;;;;;;2.15;1.17;;;;;;;16.19;60.96;99514.19;7580019;33;37246;-75
2022/09/11 05:14:05;;;;;;;3.78;1.33;;;;;;;16.31;60.70;99519.91;7578742;33;40040;-76
2022/09/11 05:18:22;;;;;;;0.93;0.93;;;;;;;16.21;61.18;99514.69;7580174;33;40049;-75
2022/09/11 05:22:38;;;;;;;2.70;1.20;;;;;;;16.51;60.52;99521.31;7580096;33;37491;-79
2022/09/11 05:26:54;;;;;;;1.45;1.15;;;;;;;16.71;60.17;99523.47;7580012;33;36719;-76
2022/09/11 05:31:19;;;;;;;2.83;1.02;;;;;;;16.41;60.97;99521.59;7580067;33;38978;-77
2022/09/11 05:35:35;;;;;;;2.03;1.20;;;;;;;16.55;60.45;99518.72;7579795;33;39939;-77
2022/09/11 05:39:51;;;;;;;2.30;1.58;;;;;;;16.48;61.25;99522.72;7579827;33;37991;-76
2022/09/11 05:44:07;;;;;;;7.30;1.67;;;;;;;16.65;60.87;99526.69;7579867;33;37095;-76
2022/09/11 05:48:26;;;;;;;2.47;1.30;;;;;;;16.65;60.75;99523.94;7579439;33;39563;-75
2022/09/11 05:52:42;;;;;;;2.20;1.20;;;;;;;16.91;59.98;99531.50;7579726;33;40003;-76
2022/09/11 05:56:58;;;;;;;3.00;1.40;;;;;;;17.07;59.40;99536.22;7566316;33;38523;-73
2022/09/11 06:01:21;;;;;;;1.73;1.10;;;;;;;16.95;60.04;99538.78;7579535;33;37599;-76
2022/09/11 06:05:37;;;;;;;2.37;1.30;;;;;;;16.64;60.81;99544.31;7566281;33;41308;-80
2022/09/11 06:09:54;;;;;;;3.42;1.12;;;;;;;16.56;61.48;99536.84;7579273;33;40017;-78
2022/09/11 06:14:16;;;;;;;2.20;1.23;;;;;;;17.03;60.66;99546.25;7579259;33;38042;-80
2022/09/11 06:18:32;;;;;;;2.05;1.27;;;;;;;17.33;58.25;99535.41;7579222;32;36757;-77
2022/09/11 06:22:49;;;;;;;2.55;1.17;;;;;;;17.56;58.74;99551.84;7565881;33;39296;-77
2022/09/11 06:27:06;;;;;;;1.87;1.10;;;;;;;17.68;57.25;99548.41;7581621;33;40948;-77
2022/09/11 06:31:24;;;;;;;1.83;1.05;;;;;;;17.86;56.96;99551.97;7581882;33;38476;-75
2022/09/11 06:35:40;;;;;;;2.50;1.02;;;;;;;17.81;57.44;99548.22;7581846;33;35345;-75
2022/09/11 06:39:56;;;;;;;0.98;0.90;;;;;;;18.37;55.76;99550.25;7582010;33;39342;-77
2022/09/11 06:44:14;;;;;;;2.62;1.00;;;;;;;18.48;54.82;99556.22;7581561;33;40016;-75
2022/09/11 06:48:30;;;;;;;1.50;0.75;;;;;;;18.13;56.27;99548.06;7580767;33;37770;-76
2022/09/11 06:52:46;;;;;;;1.05;0.88;;;;;;;18.30;56.15;99544.41;7581353;33;37037;-77
2022/09/11 06:57:02;;;;;;;2.80;1.10;;;;;;;18.28;56.54;99549.47;7581521;33;39992;-78
2022/09/11 07:01:20;;;;;;;2.37;1.00;;;;;;;18.51;56.17;99547.28;7581484;33;39995;-76
2022/09/11 07:05:36;;;;;;;1.37;1.05;;;;;;;18.68;55.63;99538.94;7581121;33;37891;-76
2022/09/11 07:09:52;;;;;;;1.23;0.80;;;;;;;18.74;54.31;99534.81;7580814;33;35441;-76
2022/09/11 07:14:08;;;;;;;5.05;1.00;;;;;;;19.13;54.17;99521.00;7581197;33;40087;-77
2022/09/11 07:18:24;;;;;;;2.12;1.00;;;;;;;18.63;55.07;99525.31;7581501;33;40138;-78
2022/09/11 07:22:40;;;;;;;0.80;0.80;;;;;;;18.64;55.20;99529.66;7580824;33;38600;-76
2022/09/11 07:26:56;;;;;;;1.10;1.00;;;;;;;18.66;54.74;99527.41;7580331;33;37843;-76
2022/09/11 07:31:15;;;;;;;0.93;0.90;;;;;;;18.58;55.42;99531.00;7580601;33;39335;-76
2022/09/11 07:35:36;;;;;;;;;;;;;;;18.38;55.58;99525.09;7585790;32;40000;-77
2022/09/11 07:39:52;;;;;;;2.15;0.80;;;;;;;18.56;55.27;99525.03;7600138;32;38294;-77
2022/09/11 07:44:09;;;;;;;2.40;0.90;;;;;;;18.54;55.83;99524.53;7580948;33;37116;-76
2022/09/11 07:48:25;;;;;;;1.65;1.20;;;;;;;19.00;55.23;99535.84;7580818;33;39515;-76
2022/09/11 07:52:41;;;;;;;2.90;1.10;;;;;;;18.46;56.45;99522.63;7566641;32;40876;-76
2022/09/11 07:56:57;;;;;;;1.87;1.27;;;;;;;18.57;56.34;99530.22;7567106;33;37693;-76
2022/09/11 08:01:16;;;;;;;3.67;1.23;;;;;;;18.68;56.15;99530.66;7580437;33;38069;-77
2022/09/11 08:05:32;;;;;;;2.85;1.70;;;;;;;18.53;57.08;99529.25;7580714;33;39111;-78
2022/09/11 08:09:48;;;;;;;1.85;1.10;;;;;;;18.31;57.20;99524.78;7580839;33;40722;-77
2022/09/11 08:14:26;;;;;;;2.40;1.37;;;;;;;18.36;57.10;99530.13;7580804;33;38216;-79
2022/09/11 08:18:42;;;;;;;3.83;1.30;;;;;;;18.25;58.83;99539.91;7584127;32;37073;-79
2022/09/11 08:22:58;;;;;;;3.87;1.10;;;;;;;18.74;57.15;99534.81;7588260;32;40842;-79
2022/09/11 08:27:14;;;;;;;3.40;1.35;;;;;;;18.96;56.76;99541.25;7580649;33;39910;-78
2022/09/11 08:31:32;;;;;;;1.42;1.10;;;;;;;18.86;57.03;99544.37;7580569;33;37876;-81
2022/09/11 08:35:48;;;;;;;1.45;1.30;;;;;;;18.89;56.88;99535.44;7580704;33;35920;-78
2022/09/11 08:40:06;;;;;;;3.95;1.20;;;;;;;18.69;57.09;99536.97;7580524;33;39469;-78
2022/09/11 08:44:31;;;;;;;1.40;1.30;;;;;;;19.40;55.68;99522.38;7571024;33;40882;-78
2022/09/11 08:49:01;;;;;;;1.90;1.17;;;;;;;19.65;54.44;99522.53;7580018;33;37891;-77
2022/09/11 08:53:17;;;;;;;6.15;1.33;;;;;;;20.01;54.03;99513.56;7580323;33;37816;-77
2022/09/11 08:58:01;;;;;;;1.45;1.12;;;;;;;20.01;53.29;99510.00;7580399;33;39166;-78
2022/09/11 09:02:30;;;;;;;1.10;1.02;;;;;;;19.70;53.71;99514.81;7580112;33;40244;-78
2022/09/11 09:07:21;;;;;;;2.20;0.90;;;;;;;20.06;52.68;99507.03;7580378;33;37364;-79
2022/09/11 09:12:04;;;;;;;3.22;1.20;;;;;;;19.71;53.65;99507.31;7568964;33;37145;-79
2022/09/11 09:16:53;;;;;;;2.20;0.90;;;;;;;20.03;52.93;99502.16;7580355;33;39863;-78
2022/09/11 09:21:23;;;;;;;3.95;1.02;;;;;;;20.55;51.36;99486.88;7580192;33;39749;-79
2022/09/11 09:25:41;;;;;;;0.80;0.80;;;;;;;20.80;49.72;99487.72;7580026;33;38793;-78
2022/09/11 09:30:00;;;;;;;0.60;0.60;;;;;;;20.61;50.06;99486.31;7566699;33;37843;-79
2022/09/11 09:34:19;;;;;;;5.65;0.85;;;;;;;20.57;50.12;99493.69;7566882;33;39390;-78
2022/09/11 09:38:35;;;;;;;1.77;0.90;;;;;;;21.06;49.78;99490.09;7566257;33;40036;-79
2022/09/11 09:43:18;;;;;;;0.82;0.70;;;;;;;21.41;48.54;99483.19;7566203;33;37960;-79
2022/09/11 09:47:36;;;;;;;2.10;0.83;;;;;;;21.56;47.48;99485.25;7568383;33;37823;-83
2022/09/11 09:52:01;;;;;;;0.77;0.77;;;;;;;21.21;47.72;99483.00;7579757;33;40188;-80
2022/09/11 09:56:20;;;;;;;15.30;0.70;;;;;;;21.92;45.42;99475.94;7579754;33;39996;-77
2022/09/11 10:00:38;;;;;;;0.55;0.55;;;;;;;21.86;44.82;99471.78;7578492;33;38065;-78
2022/09/11 10:05:16;;;;;;;0.93;0.60;;;;;;;21.87;44.75;99475.34;7566200;33;36951;-78
2022/09/11 10:09:33;;;;;;;3.35;1.02;;;;;;;21.89;44.56;99479.41;7579285;33;39419;-77
2022/09/11 10:13:53;;;;;;;0.55;0.55;;;;;;;22.68;44.83;99488.94;7578706;33;40842;-79
2022/09/11 10:18:32;;;;;;;1.35;0.80;;;;;;;22.51;43.88;99479.03;7562224;32;38777;-80
2022/09/11 10:22:49;;;;;;;3.03;0.95;;;;;;;22.15;44.90;99485.63;7583212;32;37038;-80
2022/09/11 10:27:09;;;;;;;0.70;0.60;;;;;;;22.42;43.42;99476.44;7562355;33;39264;-77
2022/09/11 10:31:26;;;;;;;2.25;0.88;;;;;;;22.73;42.99;99480.31;7578800;33;40750;-77
2022/09/11 10:35:49;;;;;;;1.00;0.80;;;;;;;22.46;43.99;99482.87;7578736;33;38733;-77
2022/09/11 10:40:17;;;;;;;5.07;0.88;;;;;;;22.41;44.89;99480.38;7566649;32;34916;-77
2022/09/11 10:44:33;;;;;;;1.02;0.85;;;;;;;22.07;45.21;99481.84;7566554;33;39317;-81
2022/09/11 10:48:55;;;;;;;0.70;0.70;;;;;;;22.15;44.63;99480.06;7587306;32;40712;-78
2022/09/11 10:53:22;;;;;;;3.03;0.70;;;;;;;21.91;45.51;99468.75;7601230;32;37890;-77
2022/09/11 10:57:44;;;;;;;0.77;0.75;;;;;;;22.10;44.37;99456.94;7578161;32;37108;-78
2022/09/11 11:02:02;;;;;;;2.83;1.10;;;;;;;22.01;45.13;99461.88;7582647;32;39808;-78
2022/09/11 11:06:36;;;;;;;1.55;0.77;;;;;;;20.97;47.31;99464.47;7558071;33;40823;-77
2022/09/11 11:11:16;;;;;;;2.35;0.85;;;;;;;21.74;46.39;99458.78;7578507;33;37801;-79
2022/09/11 11:15:37;;;;;;;1.70;0.85;;;;;;;22.52;44.88;99458.41;7591989;32;37133;-78
2022/09/11 11:20:22;;;;;;;0.70;0.70;;;;;;;22.97;43.31;99459.00;7591390;32;40128;-77
2022/09/11 11:25:07;;;;;;;2.65;0.60;;;;;;;22.70;41.83;99458.84;7569159;32;39920;-76
2022/09/11 11:29:33;;;;;;;5.70;0.73;;;;;;;23.02;42.07;99444.84;7581152;33;38631;-76
2022/09/11 11:34:13;;;;;;;2.87;0.80;;;;;;;23.04;41.18;99450.81;7581468;33;37844;-76
2022/09/11 11:38:59;;;;;;;1.30;0.77;;;;;;;22.21;43.46;99453.63;7581360;33;39327;-77
2022/09/11 11:43:20;;;;;;;0.60;0.60;;;;;;;21.79;45.30;99466.06;7581223;33;39879;-76
2022/09/11 11:47:41;;;;;;;0.60;0.60;;;;;;;21.73;46.43;99457.19;7568212;33;37660;-77
2022/09/11 11:52:14;;;;;;;5.18;0.95;;;;;;;22.19;45.01;99448.44;7580780;33;36987;-77
2022/09/11 11:56:44;;;;;;;1.10;0.82;;;;;;;22.13;43.25;99447.13;7569300;33;39307;-77
2022/09/11 12:01:03;;;;;;;0.60;0.60;;;;;;;23.01;42.10;99459.91;7569542;33;40893;-77
2022/09/11 12:05:39;;;;;;;1.95;0.57;;;;;;;22.98;41.73;99432.84;7580880;33;37941;-78
2022/09/11 12:09:57;;;;;;;5.05;1.12;;;;;;;23.18;40.69;99428.94;7580975;33;36849;-77
2022/09/11 12:14:28;;;;;;;2.15;0.80;;;;;;;22.93;42.41;99433.94;7567957;33;39145;-77
2022/09/11 12:19:06;;;;;;;0.57;0.57;;;;;;;22.34;43.26;99444.09;7580886;33;39862;-77
2022/09/11 12:23:32;;;;;;;0.60;0.60;;;;;;;22.74;42.66;99436.69;7580154;33;38838;-76
2022/09/11 12:27:51;;;;;;;0.98;0.57;;;;;;;23.00;41.50;99428.50;7567431;33;38099;-77
2022/09/11 12:32:17;;;;;;;0.52;0.50;;;;;;;23.62;40.27;99414.69;7567721;33;39040;-76
2022/09/11 12:36:59;;;;;;;3.40;0.95;;;;;;;23.86;39.91;99412.75;7580732;33;40716;-77
2022/09/11 12:41:33;;;;;;;1.08;0.60;;;;;;;23.90;40.45;99419.19;7566651;33;38211;-77
2022/09/11 12:45:50;;;;;;;3.60;0.95;;;;;;;23.92;39.95;99400.16;7580673;33;38090;-76
2022/09/11 12:50:21;;;;;;;1.02;0.57;;;;;;;24.09;39.35;99398.81;7580318;33;40029;-77
2022/09/11 12:54:41;;;;;;;3.50;0.50;;;;;;;23.83;39.64;99412.69;7580422;33;40887;-78
2022/09/11 12:59:08;;;;;;;1.12;0.55;;;;;;;23.72;39.82;99418.06;7580341;33;37878;-76
2022/09/11 13:03:26;;;;;;;4.32;0.70;;;;;;;23.57;41.45;99414.97;7567449;33;37821;-76
2022/09/11 13:07:46;;;;;;;2.20;0.85;;;;;;;23.23;42.09;99409.19;7567557;33;39390;-76
2022/09/11 13:12:24;;;;;;;0.98;0.75;;;;;;;23.24;42.14;99419.13;7580189;33;40637;-77
2022/09/11 13:16:43;;;;;;;0.90;0.50;;;;;;;22.75;42.95;99427.16;7579614;33;38476;-78
2022/09/11 13:21:03;;;;;;;2.33;0.60;;;;;;;23.59;40.58;99417.41;7566698;33;37133;-77
2022/09/11 13:25:24;;;;;;;0.60;0.60;;;;;;;23.81;39.49;99404.72;7580103;33;39472;-77
2022/09/11 13:29:41;;;;;;;1.80;0.62;;;;;;;23.05;40.89;99405.19;7592730;32;39747;-79
2022/09/11 13:33:59;;;;;;;0.82;0.37;;;;;;;23.61;40.19;99395.56;7590013;32;39130;-77
2022/09/11 13:38:18;;;;;;;0.65;0.65;;;;;;;23.42;39.92;99404.75;7579891;33;38005;-76
2022/09/11 13:42:35;;;;;;;1.73;0.50;;;;;;;22.82;40.75;99405.91;7566734;33;39358;-77
2022/09/11 13:46:51;;;;;;;1.65;0.50;;;;;;;23.06;41.35;99410.41;7579775;33;40686;-75
2022/09/11 13:51:15;;;;;;;0.52;0.52;;;;;;;22.90;44.88;99423.53;7591629;32;38008;-76
2022/09/11 13:55:31;;;;;;;0.57;0.50;;;;;;;22.45;44.16;99434.03;7578544;33;37332;-75
2022/09/11 13:59:56;;;;;;;2.65;0.47;;;;;;;22.29;46.45;99431.28;7557315;33;38018;-76
2022/09/11 14:04:13;;;;;;;1.55;0.60;;;;;;;21.76;48.56;99445.34;7572319;32;40026;-78
2022/09/11 14:08:36;;;;;;;0.40;0.40;;;;;;;21.45;48.82;99434.97;7574155;32;37683;-77
2022/09/11 14:13:36;;;;;;;0.85;0.47;;;;;;;21.56;49.23;99435.31;7569508;32;38766;-77
2022/09/11 14:17:53;;;;;;;1.20;0.68;;;;;;;21.49;50.53;99432.34;7566769;33;39430;-76
2022/09/11 14:22:31;;;;;;;2.20;0.43;;;;;;;21.46;48.57;99433.03;7564556;33;40706;-76
2022/09/11 14:26:47;;;;;;;0.90;0.70;;;;;;;20.12;50.28;99439.22;7591894;32;37959;-81
2022/09/11 14:31:09;;;;;;;0.88;0.50;;;;;;;20.51;50.31;99434.16;7565239;33;37112;-77
2022/09/11 14:35:26;;;;;;;0.70;0.70;;;;;;;20.26;49.83;99436.94;7553929;33;38630;-76
2022/09/11 14:39:57;;;;;;;0.62;0.62;;;;;;;20.71;48.71;99437.16;7574171;33;39872;-76
2022/09/11 14:44:17;;;;;;;3.30;0.90;;;;;;;21.42;46.84;99429.34;7560140;33;38660;-76
2022/09/11 14:48:34;;;;;;;1.00;0.60;;;;;;;22.23;45.87;99427.16;7567934;33;37080;-77
2022/09/11 14:52:51;;;;;;;2.15;0.55;;;;;;;23.00;44.25;99427.72;7574028;33;39468;-76
2022/09/11 14:57:15;;;;;;;4.82;0.65;;;;;;;22.91;44.51;99427.13;7557987;33;39946;-76
2022/09/11 15:01:35;;;;;;;4.68;0.62;;;;;;;23.57;43.95;99411.41;7563591;33;38585;-76
2022/09/11 15:05:56;;;;;;;0.60;0.60;;;;;;;23.70;42.62;99409.25;7569900;33;37243;-75
2022/09/11 15:10:14;;;;;;;1.95;0.70;;;;;;;23.59;43.68;99421.00;7568634;33;39344;-76
2022/09/11 15:14:34;;;;;;;3.65;0.90;;;;;;;23.05;45.57;99419.09;7568486;33;40523;-76
2022/09/11 15:19:14;;;;;;;1.17;0.77;;;;;;;23.06;45.26;99421.53;7568001;33;37977;-77
2022/09/11 15:23:32;;;;;;;1.08;0.80;;;;;;;22.55;46.92;99424.34;7555613;33;37280;-77
2022/09/11 15:27:53;;;;;;;1.52;0.93;;;;;;;22.54;47.07;99438.59;7566985;33;39259;-77
2022/09/11 15:32:09;;;;;;;1.30;0.95;;;;;;;21.94;47.59;99454.16;7568011;33;40810;-77
2022/09/11 15:36:30;;;;;;;2.85;1.00;;;;;;;21.44;47.87;99443.66;7567152;33;38068;-75
2022/09/11 15:40:55;;;;;;;1.08;0.90;;;;;;;21.29;50.70;99443.25;7567784;33;35666;-76
2022/09/11 15:45:12;;;;;;;3.80;1.10;;;;;;;21.38;51.78;99430.03;7568619;33;40067;-75
2022/09/11 15:49:28;;;;;;;3.80;1.10;;;;;;;21.38;52.16;99432.81;7567411;33;39641;-77
2022/09/11 15:53:45;;;;;;;2.67;0.98;;;;;;;20.86;54.21;99436.44;7568902;33;38047;-77
2022/09/11 15:58:03;;;;;;;3.15;1.02;;;;;;;21.09;50.88;99433.16;7569371;33;37168;-77
2022/09/11 16:02:20;;;;;;;1.83;0.95;;;;;;;21.41;49.07;99422.19;7566895;33;39461;-76
2022/09/11 16:06:39;;;;;;;0.75;0.75;;;;;;;21.65;48.41;99435.16;7567759;33;39980;-76
2022/09/11 16:10:55;;;;;;;1.10;1.00;;;;;;;21.70;46.82;99435.69;7580948;33;38698;-75
2022/09/11 16:15:11;;;;;;;2.72;1.10;;;;;;;21.75;46.39;99437.41;7580925;33;37015;-75
2022/09/11 16:19:28;;;;;;;1.73;0.90;;;;;;;22.16;45.27;99417.81;7567413;33;40206;-74
2022/09/11 16:23:44;;;;;;;1.17;0.98;;;;;;;22.08;44.83;99428.75;7580600;33;39901;-74
2022/09/11 16:28:08;;;;;;;2.05;1.02;;;;;;;22.15;45.18;99432.88;7578241;33;38696;-74
2022/09/11 16:32:27;;;;;;;3.17;1.15;;;;;;;22.52;44.00;99441.72;7577510;33;36954;-75
2022/09/11 16:36:45;;;;;;;1.15;0.70;;;;;;;22.21;44.86;99450.88;7583180;32;40038;-75
2022/09/11 16:41:11;;;;;;;6.50;0.90;;;;;;;21.98;45.94;99453.47;7582767;32;40464;-75
2022/09/11 16:45:27;;;;;;;2.70;1.00;;;;;;;21.43;47.03;99447.59;7580549;33;38106;-76
2022/09/11 16:49:43;;;;;;;0.70;0.70;;;;;;;21.16;50.04;99452.75;7579256;33;37972;-77
2022/09/11 16:54:20;;;;;;;2.58;1.42;;;;;;;21.14;50.17;99447.56;7572616;32;39465;-74
2022/09/11 16:58:37;;;;;;;2.90;1.23;;;;;;;20.91;50.23;99444.53;7580001;33;39994;-75
2022/09/11 17:02:53;;;;;;;1.05;0.95;;;;;;;21.07;50.04;99443.78;7580413;33;38050;-74
2022/09/11 17:07:10;;;;;;;2.10;1.30;;;;;;;21.00;50.01;99436.06;7580008;33;36674;-74
2022/09/11 17:11:28;;;;;;;4.45;1.45;;;;;;;20.93;50.46;99447.75;7580220;33;39906;-75
2022/09/11 17:15:44;;;;;;;0.90;0.90;;;;;;;20.90;50.10;99445.66;7580835;33;39016;-76
2022/09/11 17:20:01;;;;;;;1.90;1.30;;;;;;;20.95;50.04;99439.88;7578915;33;38669;-76
2022/09/11 17:24:20;;;;;;;1.27;1.10;;;;;;;20.64;51.09;99440.50;7580228;33;37806;-75
2022/09/11 17:28:37;;;;;;;3.37;1.62;;;;;;;20.24;53.08;99436.47;7580666;33;39331;-75
2022/09/11 17:32:53;;;;;;;2.05;1.45;;;;;;;20.17;54.47;99455.59;7579792;33;39938;-75
2022/09/11 17:37:09;;;;;;;4.40;1.75;;;;;;;19.56;57.46;99470.06;7579984;33;37900;-74
2022/09/11 17:41:25;;;;;;;1.40;1.30;;;;;;;19.58;57.98;99478.03;7579969;33;37030;-75
2022/09/11 17:45:41;;;;;;;2.15;1.67;;;;;;;19.40;59.07;99480.13;7579721;33;40145;-74
2022/09/11 17:50:00;;;;;;;6.60;2.00;;;;;;;19.35;59.63;99494.97;7566290;33;40040;-75
2022/09/11 17:54:16;;;;;;;1.95;1.50;;;;;;;19.39;59.35;99498.69;7578484;33;37718;-74
2022/09/11 17:58:33;;;;;;;4.68;1.85;;;;;;;19.23;59.34;99506.78;7579585;33;37880;-74
2022/09/11 18:02:51;;;;;;;3.67;2.15;;;;;;;19.14;59.74;99506.00;7579434;33;40091;-74
2022/09/11 18:07:07;;;;;;;4.45;1.83;;;;;;;19.16;59.39;99506.47;7579330;33;39915;-75
2022/09/11 18:11:25;;;;;;;3.92;1.80;;;;;;;19.08;59.59;99504.63;7578395;33;38851;-73
2022/09/11 18:15:42;;;;;;;3.65;1.65;;;;;;;18.84;60.12;99506.06;7579356;33;37208;-74
2022/09/11 18:19:58;;;;;;;2.10;1.70;;;;;;;18.13;62.75;99504.72;7565770;33;39470;-75
2022/09/11 18:24:22;;;;;;;3.10;1.60;;;;;;;18.34;61.83;99509.53;7578253;33;39597;-75
2022/09/11 18:28:39;;;;;;;4.57;1.90;;;;;;;18.15;62.03;99518.19;7579194;33;38687;-75
2022/09/11 18:32:55;;;;;;;4.18;1.65;;;;;;;18.10;61.93;99516.41;7579036;33;37032;-75
2022/09/11 18:37:11;;;;;;;4.82;1.80;;;;;;;18.24;61.18;99527.25;7578976;33;39683;-75
2022/09/11 18:41:29;;;;;;;3.40;1.85;;;;;;;18.12;61.45;99530.69;7578790;33;40705;-74
2022/09/11 18:45:45;;;;;;;2.40;1.80;;;;;;;18.22;60.80;99535.03;7565515;33;38846;-74
2022/09/11 18:50:04;;;;;;;1.60;1.50;;;;;;;18.06;60.98;99526.50;7578542;33;36872;-75
2022/09/11 18:54:20;;;;;;;1.90;1.70;;;;;;;17.62;62.06;99532.03;7578377;33;39019;-75
2022/09/11 18:58:39;;;;;;;2.55;1.75;;;;;;;17.45;62.55;99527.34;7578378;33;40915;-74
2022/09/11 19:02:55;;;;;;;2.55;1.73;;;;;;;17.29;63.03;99530.91;7578303;33;37499;-74
2022/09/11 19:07:13;;;;;;;5.87;2.15;;;;;;;17.11;63.59;99536.41;7578414;33;36883;-75
2022/09/11 19:11:31;;;;;;;2.90;2.00;;;;;;;17.11;63.55;99539.16;7578020;33;39267;-74
2022/09/11 19:15:55;;;;;;;5.03;2.10;;;;;;;17.39;62.56;99527.84;7577941;33;40164;-74
2022/09/11 19:20:11;;;;;;;4.15;1.90;;;;;;;17.24;63.27;99534.63;7577947;33;37855;-74
2022/09/11 19:24:28;;;;;;;3.22;1.90;;;;;;;17.12;63.30;99529.72;7564531;33;37011;-75
2022/09/11 19:28:45;;;;;;;3.47;1.80;;;;;;;16.92;64.20;99524.84;7576203;33;40044;-76
2022/09/11 19:33:02;;;;;;;2.60;2.05;;;;;;;16.94;64.22;99530.84;7573084;32;40622;-75
2022/09/11 19:37:19;;;;;;;5.60;2.30;;;;;;;17.13;63.21;99525.84;7591512;32;38513;-75
2022/09/11 19:41:37;;;;;;;4.28;2.05;;;;;;;16.84;64.28;99526.44;7607480;32;37312;-75
2022/09/11 19:46:03;;;;;;;3.97;2.10;;;;;;;16.69;64.95;99524.91;7607233;32;39494;-75
2022/09/11 19:50:21;;;;;;;3.03;2.10;;;;;;;16.73;64.84;99519.56;7583680;32;40046;-76
2022/09/11 19:54:40;;;;;;;4.65;2.40;;;;;;;16.51;65.26;99519.34;7581091;33;38708;-75
2022/09/11 19:58:58;;;;;;;2.20;1.77;;;;;;;16.49;65.39;99526.31;7571721;33;37224;-76
2022/09/11 20:03:17;;;;;;;2.35;2.15;;;;;;;16.46;65.01;99535.19;7581095;33;40068;-76
2022/09/11 20:07:34;;;;;;;2.17;1.98;;;;;;;16.74;63.85;99529.47;7581392;33;39502;-76
2022/09/11 20:11:50;;;;;;;3.17;2.10;;;;;;;16.80;63.62;99530.94;7567738;33;37861;-76
2022/09/11 20:16:09;;;;;;;2.65;2.00;;;;;;;16.92;62.72;99533.09;7580727;33;36969;-76
2022/09/11 20:20:25;;;;;;;2.37;2.17;;;;;;;16.89;62.33;99532.62;7580878;33;39373;-75
2022/09/11 20:24:41;;;;;;;2.40;2.20;;;;;;;16.79;62.72;99532.06;7580529;33;39853;-75
2022/09/11 20:28:59;;;;;;;4.82;2.83;;;;;;;16.82;62.67;99539.69;7580745;32;38000;-77